sensor_id;sensor_type;location;lat;lon;timestamp;temperature;humidity
13440;DHT22;6792;57.698;11.946;2023-03-01T00:01:30;9.00;51.10
13440;DHT22;6792;57.698;11.946;2023-03-01T00:03:59;8.90;51.00
13440;DHT22;6792;57.698;11.946;2023-03-01T00:06:29;8.90;51.10
13440;DHT22;6792;57.698;11.946;2023-03-01T00:08:58;8.90;51.10
13440;DHT22;6792;57.698;11.946;2023-03-01T00:11:28;8.90;51.10
13440;DHT22;6792;57.698;11.946;2023-03-01T00:13:58;8.90;51.10
13440;DHT22;6792;57.698;11.946;2023-03-01T00:16:30;8.90;51.20
13440;DHT22;6792;57.698;11.946;2023-03-01T00:19:01;8.90;51.30
13440;DHT22;6792;57.698;11.946;2023-03-01T00:21:30;8.90;51.30
13440;DHT22;6792;57.698;11.946;2023-03-01T00:23:59;8.90;51.20
13440;DHT22;6792;57.698;11.946;2023-03-01T00:26:29;8.90;51.20
13440;DHT22;6792;57.698;11.946;2023-03-01T00:28:58;8.90;51.30
13440;DHT22;6792;57.698;11.946;2023-03-01T00:31:29;8.90;51.30
13440;DHT22;6792;57.698;11.946;2023-03-01T00:34:00;8.90;51.20
13440;DHT22;6792;57.698;11.946;2023-03-01T00:36:31;8.90;51.20
13440;DHT22;6792;57.698;11.946;2023-03-01T00:39:00;8.90;50.60
13440;DHT22;6792;57.698;11.946;2023-03-01T00:41:30;8.90;50.60
13440;DHT22;6792;57.698;11.946;2023-03-01T00:44:01;8.90;51.10
13440;DHT22;6792;57.698;11.946;2023-03-01T00:46:30;8.90;51.10
13440;DHT22;6792;57.698;11.946;2023-03-01T00:48:59;8.90;51.10
13440;DHT22;6792;57.698;11.946;2023-03-01T00:51:30;8.90;51.10
13440;DHT22;6792;57.698;11.946;2023-03-01T00:54:00;8.90;51.10
13440;DHT22;6792;57.698;11.946;2023-03-01T00:56:30;8.90;50.50
13440;DHT22;6792;57.698;11.946;2023-03-01T00:58:59;8.90;51.00
13440;DHT22;6792;57.698;11.946;2023-03-01T01:01:30;8.90;50.50
13440;DHT22;6792;57.698;11.946;2023-03-01T01:04:02;8.80;50.50
13440;DHT22;6792;57.698;11.946;2023-03-01T01:06:33;8.80;51.10
13440;DHT22;6792;57.698;11.946;2023-03-01T01:09:04;8.80;51.20
13440;DHT22;6792;57.698;11.946;2023-03-01T01:11:34;8.80;51.10
13440;DHT22;6792;57.698;11.946;2023-03-01T01:14:04;8.80;51.10
13440;DHT22;6792;57.698;11.946;2023-03-01T01:16:33;8.80;51.00
13440;DHT22;6792;57.698;11.946;2023-03-01T01:19:02;8.80;51.60
13440;DHT22;6792;57.698;11.946;2023-03-01T01:21:32;8.80;50.50
13440;DHT22;6792;57.698;11.946;2023-03-01T01:24:02;8.80;51.00
13440;DHT22;6792;57.698;11.946;2023-03-01T01:26:33;8.70;50.40
13440;DHT22;6792;57.698;11.946;2023-03-01T01:29:03;8.70;50.90
13440;DHT22;6792;57.698;11.946;2023-03-01T01:31:33;8.70;51.00
13440;DHT22;6792;57.698;11.946;2023-03-01T01:34:05;8.70;51.10
13440;DHT22;6792;57.698;11.946;2023-03-01T01:36:35;8.70;51.10
13440;DHT22;6792;57.698;11.946;2023-03-01T01:39:04;8.60;51.10
13440;DHT22;6792;57.698;11.946;2023-03-01T01:41:37;8.60;51.10
13440;DHT22;6792;57.698;11.946;2023-03-01T01:44:18;8.60;51.00
13440;DHT22;6792;57.698;11.946;2023-03-01T01:46:50;8.60;50.40
13440;DHT22;6792;57.698;11.946;2023-03-01T01:49:28;8.60;51.10
13440;DHT22;6792;57.698;11.946;2023-03-01T01:52:02;8.60;51.10
13440;DHT22;6792;57.698;11.946;2023-03-01T01:54:36;8.60;51.10
13440;DHT22;6792;57.698;11.946;2023-03-01T01:57:07;8.60;50.60
13440;DHT22;6792;57.698;11.946;2023-03-01T01:59:38;8.60;51.10
13440;DHT22;6792;57.698;11.946;2023-03-01T02:02:07;8.60;51.20
13440;DHT22;6792;57.698;11.946;2023-03-01T02:04:36;8.60;51.10
13440;DHT22;6792;57.698;11.946;2023-03-01T02:07:10;8.60;51.10
13440;DHT22;6792;57.698;11.946;2023-03-01T02:09:41;8.60;51.00
13440;DHT22;6792;57.698;11.946;2023-03-01T02:12:11;8.50;50.50
13440;DHT22;6792;57.698;11.946;2023-03-01T02:14:40;8.50;51.10
13440;DHT22;6792;57.698;11.946;2023-03-01T02:17:09;8.60;51.20
13440;DHT22;6792;57.698;11.946;2023-03-01T02:19:46;8.50;51.00
13440;DHT22;6792;57.698;11.946;2023-03-01T02:22:22;8.50;50.50
13440;DHT22;6792;57.698;11.946;2023-03-01T02:24:59;8.50;50.50
13440;DHT22;6792;57.698;11.946;2023-03-01T02:30:12;8.50;50.60
13440;DHT22;6792;57.698;11.946;2023-03-01T02:32:41;8.50;51.10
13440;DHT22;6792;57.698;11.946;2023-03-01T02:37:43;8.50;50.50
13440;DHT22;6792;57.698;11.946;2023-03-01T02:40:15;8.50;51.10
13440;DHT22;6792;57.698;11.946;2023-03-01T02:42:49;8.50;51.10
13440;DHT22;6792;57.698;11.946;2023-03-01T02:45:18;8.50;51.10
13440;DHT22;6792;57.698;11.946;2023-03-01T02:47:50;8.50;51.10
13440;DHT22;6792;57.698;11.946;2023-03-01T02:50:31;8.40;50.60
13440;DHT22;6792;57.698;11.946;2023-03-01T02:53:01;8.40;50.60
13440;DHT22;6792;57.698;11.946;2023-03-01T02:55:31;8.50;51.10
13440;DHT22;6792;57.698;11.946;2023-03-01T02:58:03;8.50;51.00
13440;DHT22;6792;57.698;11.946;2023-03-01T03:00:34;8.40;51.00
13440;DHT22;6792;57.698;11.946;2023-03-01T03:03:06;8.40;50.50
13440;DHT22;6792;57.698;11.946;2023-03-01T03:05:35;8.40;51.20
13440;DHT22;6792;57.698;11.946;2023-03-01T03:08:05;8.40;51.10
13440;DHT22;6792;57.698;11.946;2023-03-01T03:10:37;8.40;51.00
13440;DHT22;6792;57.698;11.946;2023-03-01T03:13:08;8.40;50.40
13440;DHT22;6792;57.698;11.946;2023-03-01T03:15:38;8.40;51.00
13440;DHT22;6792;57.698;11.946;2023-03-01T03:18:10;8.40;51.00
13440;DHT22;6792;57.698;11.946;2023-03-01T03:20:40;8.40;51.00
13440;DHT22;6792;57.698;11.946;2023-03-01T03:23:10;8.30;51.00
13440;DHT22;6792;57.698;11.946;2023-03-01T03:25:39;8.30;51.00
13440;DHT22;6792;57.698;11.946;2023-03-01T03:28:11;8.30;51.00
13440;DHT22;6792;57.698;11.946;2023-03-01T03:30:41;8.30;51.00
13440;DHT22;6792;57.698;11.946;2023-03-01T03:33:12;8.30;50.90
13440;DHT22;6792;57.698;11.946;2023-03-01T03:35:43;8.30;50.90
13440;DHT22;6792;57.698;11.946;2023-03-01T03:38:15;8.30;50.90
13440;DHT22;6792;57.698;11.946;2023-03-01T03:40:46;8.30;50.90
13440;DHT22;6792;57.698;11.946;2023-03-01T03:43:17;8.30;50.30
13440;DHT22;6792;57.698;11.946;2023-03-01T03:45:47;8.30;50.90
13440;DHT22;6792;57.698;11.946;2023-03-01T03:48:17;8.30;51.00
13440;DHT22;6792;57.698;11.946;2023-03-01T03:50:50;8.20;50.40
13440;DHT22;6792;57.698;11.946;2023-03-01T03:53:20;8.30;51.10
13440;DHT22;6792;57.698;11.946;2023-03-01T03:55:50;8.30;51.10
13440;DHT22;6792;57.698;11.946;2023-03-01T03:58:21;8.30;51.10
13440;DHT22;6792;57.698;11.946;2023-03-01T04:00:51;8.30;51.10
13440;DHT22;6792;57.698;11.946;2023-03-01T04:03:21;8.30;51.10
13440;DHT22;6792;57.698;11.946;2023-03-01T04:05:51;8.30;51.10
13440;DHT22;6792;57.698;11.946;2023-03-01T04:08:24;8.30;51.00
13440;DHT22;6792;57.698;11.946;2023-03-01T04:10:57;8.20;51.00
13440;DHT22;6792;57.698;11.946;2023-03-01T04:13:27;8.20;50.40
13440;DHT22;6792;57.698;11.946;2023-03-01T04:15:56;8.20;51.00
13440;DHT22;6792;57.698;11.946;2023-03-01T04:18:25;8.20;50.50
13440;DHT22;6792;57.698;11.946;2023-03-01T04:20:54;8.20;51.10
13440;DHT22;6792;57.698;11.946;2023-03-01T04:23:24;8.20;51.10
13440;DHT22;6792;57.698;11.946;2023-03-01T04:25:54;8.20;51.60
13440;DHT22;6792;57.698;11.946;2023-03-01T04:28:27;8.20;51.00
13440;DHT22;6792;57.698;11.946;2023-03-01T04:30:57;8.20;50.90
13440;DHT22;6792;57.698;11.946;2023-03-01T04:33:26;8.20;50.90
13440;DHT22;6792;57.698;11.946;2023-03-01T04:35:55;8.20;51.00
13440;DHT22;6792;57.698;11.946;2023-03-01T04:38:25;8.20;50.90
13440;DHT22;6792;57.698;11.946;2023-03-01T04:40:54;8.10;50.90
13440;DHT22;6792;57.698;11.946;2023-03-01T04:43:24;8.10;50.90
13440;DHT22;6792;57.698;11.946;2023-03-01T04:45:53;8.10;51.00
13440;DHT22;6792;57.698;11.946;2023-03-01T04:48:22;8.10;50.90
13440;DHT22;6792;57.698;11.946;2023-03-01T04:50:51;8.10;50.40
13440;DHT22;6792;57.698;11.946;2023-03-01T04:53:20;8.10;50.90
13440;DHT22;6792;57.698;11.946;2023-03-01T04:55:50;8.10;50.90
13440;DHT22;6792;57.698;11.946;2023-03-01T04:58:19;8.10;50.90
13440;DHT22;6792;57.698;11.946;2023-03-01T05:00:51;8.10;50.90
13440;DHT22;6792;57.698;11.946;2023-03-01T05:03:20;8.10;50.90
13440;DHT22;6792;57.698;11.946;2023-03-01T05:05:52;8.10;50.40
13440;DHT22;6792;57.698;11.946;2023-03-01T05:08:21;8.10;51.00
13440;DHT22;6792;57.698;11.946;2023-03-01T05:10:52;8.10;50.90
13440;DHT22;6792;57.698;11.946;2023-03-01T05:13:25;8.00;50.90
13440;DHT22;6792;57.698;11.946;2023-03-01T05:15:56;8.00;50.90
13440;DHT22;6792;57.698;11.946;2023-03-01T05:18:27;8.00;50.90
13440;DHT22;6792;57.698;11.946;2023-03-01T05:21:02;8.00;50.90
13440;DHT22;6792;57.698;11.946;2023-03-01T05:23:35;8.00;50.90
13440;DHT22;6792;57.698;11.946;2023-03-01T05:26:05;8.00;50.90
13440;DHT22;6792;57.698;11.946;2023-03-01T05:28:37;8.00;50.30
13440;DHT22;6792;57.698;11.946;2023-03-01T05:31:07;8.00;50.30
13440;DHT22;6792;57.698;11.946;2023-03-01T05:33:38;8.00;50.30
13440;DHT22;6792;57.698;11.946;2023-03-01T05:36:11;8.00;50.90
13440;DHT22;6792;57.698;11.946;2023-03-01T05:38:41;8.00;50.30
13440;DHT22;6792;57.698;11.946;2023-03-01T05:41:15;8.00;50.90
13440;DHT22;6792;57.698;11.946;2023-03-01T05:43:45;8.00;50.90
13440;DHT22;6792;57.698;11.946;2023-03-01T05:46:16;8.00;50.90
13440;DHT22;6792;57.698;11.946;2023-03-01T05:48:46;8.00;50.90
13440;DHT22;6792;57.698;11.946;2023-03-01T05:51:15;8.00;50.90
13440;DHT22;6792;57.698;11.946;2023-03-01T05:53:45;8.00;50.90
13440;DHT22;6792;57.698;11.946;2023-03-01T05:56:14;8.00;50.90
13440;DHT22;6792;57.698;11.946;2023-03-01T05:58:43;8.00;50.90
13440;DHT22;6792;57.698;11.946;2023-03-01T06:01:13;8.00;50.30
13440;DHT22;6792;57.698;11.946;2023-03-01T06:03:44;8.00;50.90
13440;DHT22;6792;57.698;11.946;2023-03-01T06:06:13;8.00;50.90
13440;DHT22;6792;57.698;11.946;2023-03-01T06:08:42;8.00;50.90
13440;DHT22;6792;57.698;11.946;2023-03-01T06:11:11;8.00;50.90
13440;DHT22;6792;57.698;11.946;2023-03-01T06:13:41;8.00;51.00
13440;DHT22;6792;57.698;11.946;2023-03-01T06:16:11;8.00;51.00
13440;DHT22;6792;57.698;11.946;2023-03-01T06:18:41;8.00;50.90
13440;DHT22;6792;57.698;11.946;2023-03-01T06:21:12;8.00;50.90
13440;DHT22;6792;57.698;11.946;2023-03-01T06:23:41;8.00;50.90
13440;DHT22;6792;57.698;11.946;2023-03-01T06:26:14;8.00;50.90
13440;DHT22;6792;57.698;11.946;2023-03-01T06:28:43;8.00;51.10
13440;DHT22;6792;57.698;11.946;2023-03-01T06:33:55;8.00;50.40
13440;DHT22;6792;57.698;11.946;2023-03-01T06:36:24;8.00;50.90
13440;DHT22;6792;57.698;11.946;2023-03-01T06:38:53;8.00;51.00
13440;DHT22;6792;57.698;11.946;2023-03-01T06:41:24;8.00;50.90
13440;DHT22;6792;57.698;11.946;2023-03-01T06:43:54;8.00;50.90
13440;DHT22;6792;57.698;11.946;2023-03-01T06:46:23;8.00;50.90
13440;DHT22;6792;57.698;11.946;2023-03-01T06:48:52;8.10;50.90
13440;DHT22;6792;57.698;11.946;2023-03-01T06:51:23;8.00;50.90
13440;DHT22;6792;57.698;11.946;2023-03-01T06:53:52;8.00;50.30
13440;DHT22;6792;57.698;11.946;2023-03-01T06:56:22;8.00;50.80
13440;DHT22;6792;57.698;11.946;2023-03-01T06:58:51;8.10;50.90
13440;DHT22;6792;57.698;11.946;2023-03-01T07:01:20;8.00;50.40
13440;DHT22;6792;57.698;11.946;2023-03-01T07:03:49;8.10;50.90
13440;DHT22;6792;57.698;11.946;2023-03-01T07:06:18;8.10;50.90
13440;DHT22;6792;57.698;11.946;2023-03-01T07:08:47;8.10;50.30
13440;DHT22;6792;57.698;11.946;2023-03-01T07:11:16;8.20;51.00
13440;DHT22;6792;57.698;11.946;2023-03-01T07:13:46;8.20;50.90
13440;DHT22;6792;57.698;11.946;2023-03-01T07:16:15;8.20;50.90
13440;DHT22;6792;57.698;11.946;2023-03-01T07:18:44;8.20;50.90
13440;DHT22;6792;57.698;11.946;2023-03-01T07:21:14;8.30;50.90
13440;DHT22;6792;57.698;11.946;2023-03-01T07:23:44;8.30;50.90
13440;DHT22;6792;57.698;11.946;2023-03-01T07:26:14;8.30;50.90
13440;DHT22;6792;57.698;11.946;2023-03-01T07:28:43;8.30;50.90
13440;DHT22;6792;57.698;11.946;2023-03-01T07:31:12;8.30;50.90
13440;DHT22;6792;57.698;11.946;2023-03-01T07:33:44;8.30;50.80
13440;DHT22;6792;57.698;11.946;2023-03-01T07:36:13;8.30;50.70
13440;DHT22;6792;57.698;11.946;2023-03-01T07:38:42;8.40;50.80
13440;DHT22;6792;57.698;11.946;2023-03-01T07:41:11;8.40;50.80
13440;DHT22;6792;57.698;11.946;2023-03-01T07:43:45;8.50;50.80
13440;DHT22;6792;57.698;11.946;2023-03-01T07:46:14;8.50;50.80
13440;DHT22;6792;57.698;11.946;2023-03-01T07:48:43;8.50;50.90
13440;DHT22;6792;57.698;11.946;2023-03-01T07:51:12;8.50;50.80
13440;DHT22;6792;57.698;11.946;2023-03-01T07:53:42;8.60;50.90
13440;DHT22;6792;57.698;11.946;2023-03-01T07:56:13;8.60;50.80
13440;DHT22;6792;57.698;11.946;2023-03-01T07:58:45;8.60;50.80
13440;DHT22;6792;57.698;11.946;2023-03-01T08:01:16;8.60;50.70
13440;DHT22;6792;57.698;11.946;2023-03-01T08:03:45;8.70;50.80
13440;DHT22;6792;57.698;11.946;2023-03-01T08:06:16;8.70;50.20
13440;DHT22;6792;57.698;11.946;2023-03-01T08:08:48;8.80;50.80
13440;DHT22;6792;57.698;11.946;2023-03-01T08:11:17;8.80;50.80
13440;DHT22;6792;57.698;11.946;2023-03-01T08:13:49;8.80;50.80
13440;DHT22;6792;57.698;11.946;2023-03-01T08:16:18;8.90;50.80
13440;DHT22;6792;57.698;11.946;2023-03-01T08:18:47;9.00;50.80
13440;DHT22;6792;57.698;11.946;2023-03-01T08:21:18;9.00;50.80
13440;DHT22;6792;57.698;11.946;2023-03-01T08:23:47;9.10;50.20
13440;DHT22;6792;57.698;11.946;2023-03-01T08:26:18;9.10;50.70
13440;DHT22;6792;57.698;11.946;2023-03-01T08:28:49;9.20;50.70
13440;DHT22;6792;57.698;11.946;2023-03-01T08:31:22;9.20;50.10
13440;DHT22;6792;57.698;11.946;2023-03-01T08:33:53;9.20;50.10
13440;DHT22;6792;57.698;11.946;2023-03-01T08:36:24;9.30;50.70
13440;DHT22;6792;57.698;11.946;2023-03-01T08:38:53;9.30;50.10
13440;DHT22;6792;57.698;11.946;2023-03-01T08:41:23;9.40;50.60
13440;DHT22;6792;57.698;11.946;2023-03-01T08:43:52;9.50;50.60
13440;DHT22;6792;57.698;11.946;2023-03-01T08:46:23;9.50;50.60
13440;DHT22;6792;57.698;11.946;2023-03-01T08:48:52;9.60;50.50
13440;DHT22;6792;57.698;11.946;2023-03-01T08:51:22;9.70;50.50
13440;DHT22;6792;57.698;11.946;2023-03-01T08:53:54;9.70;50.40
13440;DHT22;6792;57.698;11.946;2023-03-01T08:56:24;9.80;50.50
13440;DHT22;6792;57.698;11.946;2023-03-01T08:58:55;9.80;50.40
13440;DHT22;6792;57.698;11.946;2023-03-01T09:01:25;9.90;50.40
13440;DHT22;6792;57.698;11.946;2023-03-01T09:03:55;9.90;50.60
13440;DHT22;6792;57.698;11.946;2023-03-01T09:06:25;10.00;50.30
13440;DHT22;6792;57.698;11.946;2023-03-01T09:08:54;10.10;49.70
13440;DHT22;6792;57.698;11.946;2023-03-01T09:11:23;10.10;50.20
13440;DHT22;6792;57.698;11.946;2023-03-01T09:13:52;10.20;50.20
13440;DHT22;6792;57.698;11.946;2023-03-01T09:16:22;10.20;50.20
13440;DHT22;6792;57.698;11.946;2023-03-01T09:18:53;10.30;50.20
13440;DHT22;6792;57.698;11.946;2023-03-01T09:21:23;10.30;49.60
13440;DHT22;6792;57.698;11.946;2023-03-01T09:23:52;10.40;50.10
13440;DHT22;6792;57.698;11.946;2023-03-01T09:26:23;10.50;50.10
13440;DHT22;6792;57.698;11.946;2023-03-01T09:28:54;10.50;50.00
13440;DHT22;6792;57.698;11.946;2023-03-01T09:31:25;10.60;50.00
13440;DHT22;6792;57.698;11.946;2023-03-01T09:33:54;10.60;49.90
13440;DHT22;6792;57.698;11.946;2023-03-01T09:36:25;10.70;49.90
13440;DHT22;6792;57.698;11.946;2023-03-01T09:38:54;10.70;49.80
13440;DHT22;6792;57.698;11.946;2023-03-01T09:41:43;10.80;49.80
13440;DHT22;6792;57.698;11.946;2023-03-01T09:44:18;10.80;49.80
13440;DHT22;6792;57.698;11.946;2023-03-01T09:46:47;10.90;49.90
13440;DHT22;6792;57.698;11.946;2023-03-01T09:49:19;11.00;49.20
13440;DHT22;6792;57.698;11.946;2023-03-01T09:51:54;11.00;49.10
13440;DHT22;6792;57.698;11.946;2023-03-01T09:54:24;11.10;49.10
13440;DHT22;6792;57.698;11.946;2023-03-01T09:57:06;11.10;49.60
13440;DHT22;6792;57.698;11.946;2023-03-01T09:59:44;11.20;49.60
13440;DHT22;6792;57.698;11.946;2023-03-01T10:02:23;11.20;49.50
13440;DHT22;6792;57.698;11.946;2023-03-01T10:04:57;11.20;48.90
13440;DHT22;6792;57.698;11.946;2023-03-01T10:07:32;11.30;49.50
13440;DHT22;6792;57.698;11.946;2023-03-01T10:10:02;11.10;48.70
13440;DHT22;6792;57.698;11.946;2023-03-01T10:12:35;11.30;49.30
13440;DHT22;6792;57.698;11.946;2023-03-01T10:15:09;11.30;48.70
13440;DHT22;6792;57.698;11.946;2023-03-01T10:17:43;11.40;48.60
13440;DHT22;6792;57.698;11.946;2023-03-01T10:20:21;11.40;49.10
13440;DHT22;6792;57.698;11.946;2023-03-01T10:22:52;11.50;49.10
13440;DHT22;6792;57.698;11.946;2023-03-01T10:25:39;11.50;48.50
13440;DHT22;6792;57.698;11.946;2023-03-01T10:28:05;11.50;49.00
13440;DHT22;6792;57.698;11.946;2023-03-01T10:30:37;11.60;48.40
13440;DHT22;6792;57.698;11.946;2023-03-01T10:33:13;11.70;49.00
13440;DHT22;6792;57.698;11.946;2023-03-01T10:35:42;11.70;48.80
13440;DHT22;6792;57.698;11.946;2023-03-01T10:38:16;11.80;48.80
13440;DHT22;6792;57.698;11.946;2023-03-01T10:40:54;11.80;48.70
13440;DHT22;6792;57.698;11.946;2023-03-01T10:43:25;11.90;48.70
13440;DHT22;6792;57.698;11.946;2023-03-01T10:45:55;11.90;48.60
13440;DHT22;6792;57.698;11.946;2023-03-01T10:48:25;11.90;48.60
13440;DHT22;6792;57.698;11.946;2023-03-01T10:51:07;12.00;48.50
13440;DHT22;6792;57.698;11.946;2023-03-01T10:53:38;12.00;48.40
13440;DHT22;6792;57.698;11.946;2023-03-01T10:56:10;12.00;48.30
13440;DHT22;6792;57.698;11.946;2023-03-01T10:58:56;12.10;48.30
13440;DHT22;6792;57.698;11.946;2023-03-01T11:01:26;12.10;48.20
13440;DHT22;6792;57.698;11.946;2023-03-01T11:04:11;12.20;48.20
13440;DHT22;6792;57.698;11.946;2023-03-01T11:06:41;12.30;48.00
13440;DHT22;6792;57.698;11.946;2023-03-01T11:09:18;12.30;47.90
13440;DHT22;6792;57.698;11.946;2023-03-01T11:11:52;12.40;47.30
13440;DHT22;6792;57.698;11.946;2023-03-01T11:14:23;12.50;47.90
13440;DHT22;6792;57.698;11.946;2023-03-01T11:17:01;12.50;47.70
13440;DHT22;6792;57.698;11.946;2023-03-01T11:19:31;12.60;47.60
13440;DHT22;6792;57.698;11.946;2023-03-01T11:22:06;12.60;47.50
13440;DHT22;6792;57.698;11.946;2023-03-01T11:24:39;12.70;47.30
13440;DHT22;6792;57.698;11.946;2023-03-01T11:27:15;12.80;46.70
13440;DHT22;6792;57.698;11.946;2023-03-01T11:29:50;12.90;47.20
13440;DHT22;6792;57.698;11.946;2023-03-01T11:32:23;13.00;47.20
13440;DHT22;6792;57.698;11.946;2023-03-01T11:34:57;13.10;47.10
13440;DHT22;6792;57.698;11.946;2023-03-01T11:37:32;13.20;47.00
13440;DHT22;6792;57.698;11.946;2023-03-01T11:40:09;13.30;46.90
13440;DHT22;6792;57.698;11.946;2023-03-01T11:42:44;13.40;46.70
13440;DHT22;6792;57.698;11.946;2023-03-01T11:45:14;13.50;46.60
13440;DHT22;6792;57.698;11.946;2023-03-01T11:47:58;13.60;46.40
13440;DHT22;6792;57.698;11.946;2023-03-01T11:50:32;13.70;46.30
13440;DHT22;6792;57.698;11.946;2023-03-01T11:53:48;13.80;46.20
13440;DHT22;6792;57.698;11.946;2023-03-01T11:56:13;13.90;46.10
13440;DHT22;6792;57.698;11.946;2023-03-01T11:58:56;14.00;46.00
13440;DHT22;6792;57.698;11.946;2023-03-01T12:05:02;14.20;45.00
13440;DHT22;6792;57.698;11.946;2023-03-01T12:07:41;14.30;45.60
13440;DHT22;6792;57.698;11.946;2023-03-01T12:10:23;14.50;45.40
13440;DHT22;6792;57.698;11.946;2023-03-01T12:13:06;14.60;45.10
13440;DHT22;6792;57.698;11.946;2023-03-01T12:18:58;14.70;44.80
13440;DHT22;6792;57.698;11.946;2023-03-01T12:21:37;14.90;44.10
13440;DHT22;6792;57.698;11.946;2023-03-01T12:27:26;15.20;45.00
13440;DHT22;6792;57.698;11.946;2023-03-01T12:29:59;15.30;44.10
13440;DHT22;6792;57.698;11.946;2023-03-01T12:35:43;15.60;42.70
13440;DHT22;6792;57.698;11.946;2023-03-01T12:38:22;15.70;43.40
13440;DHT22;6792;57.698;11.946;2023-03-01T12:41:04;15.80;43.10
13440;DHT22;6792;57.698;11.946;2023-03-01T12:43:40;15.50;42.60
13440;DHT22;6792;57.698;11.946;2023-03-01T12:46:23;16.00;42.00
13440;DHT22;6792;57.698;11.946;2023-03-01T12:48:57;16.20;41.60
13440;DHT22;6792;57.698;11.946;2023-03-01T12:51:31;16.40;42.10
13440;DHT22;6792;57.698;11.946;2023-03-01T12:54:05;16.50;41.10
13440;DHT22;6792;57.698;11.946;2023-03-01T12:56:35;16.70;41.50
13440;DHT22;6792;57.698;11.946;2023-03-01T12:59:11;16.90;41.30
13440;DHT22;6792;57.698;11.946;2023-03-01T13:01:45;17.00;40.90
13440;DHT22;6792;57.698;11.946;2023-03-01T13:04:25;17.10;40.50
13440;DHT22;6792;57.698;11.946;2023-03-01T13:07:04;17.30;40.40
13440;DHT22;6792;57.698;11.946;2023-03-01T13:09:38;17.40;40.10
13440;DHT22;6792;57.698;11.946;2023-03-01T13:12:50;17.50;39.90
13440;DHT22;6792;57.698;11.946;2023-03-01T13:15:36;17.60;39.60
13440;DHT22;6792;57.698;11.946;2023-03-01T13:18:29;17.70;40.00
13440;DHT22;6792;57.698;11.946;2023-03-01T13:21:00;17.80;38.60
13440;DHT22;6792;57.698;11.946;2023-03-01T13:23:32;17.90;39.30
13440;DHT22;6792;57.698;11.946;2023-03-01T13:26:09;17.90;38.30
13440;DHT22;6792;57.698;11.946;2023-03-01T13:28:54;18.10;38.60
13440;DHT22;6792;57.698;11.946;2023-03-01T13:34:52;18.20;37.40
13440;DHT22;6792;57.698;11.946;2023-03-01T13:37:33;18.10;38.20
13440;DHT22;6792;57.698;11.946;2023-03-01T13:40:56;18.10;38.00
13440;DHT22;6792;57.698;11.946;2023-03-01T13:42:45;18.10;37.70
13440;DHT22;6792;57.698;11.946;2023-03-01T13:45:36;18.00;36.90
13440;DHT22;6792;57.698;11.946;2023-03-01T13:48:01;18.00;36.90
13440;DHT22;6792;57.698;11.946;2023-03-01T13:50:33;17.90;37.40
13440;DHT22;6792;57.698;11.946;2023-03-01T13:53:09;17.90;37.20
13440;DHT22;6792;57.698;11.946;2023-03-01T13:55:40;18.00;37.20
13440;DHT22;6792;57.698;11.946;2023-03-01T13:58:20;18.00;36.50
13440;DHT22;6792;57.698;11.946;2023-03-01T14:01:00;18.00;37.00
13440;DHT22;6792;57.698;11.946;2023-03-01T14:03:31;18.00;36.80
13440;DHT22;6792;57.698;11.946;2023-03-01T14:06:06;18.00;36.90
13440;DHT22;6792;57.698;11.946;2023-03-01T14:08:40;17.90;36.20
13440;DHT22;6792;57.698;11.946;2023-03-01T14:14:36;17.80;36.70
13440;DHT22;6792;57.698;11.946;2023-03-01T14:17:20;17.70;36.90
13440;DHT22;6792;57.698;11.946;2023-03-01T14:19:55;17.70;37.00
13440;DHT22;6792;57.698;11.946;2023-03-01T14:22:29;17.60;36.30
13440;DHT22;6792;57.698;11.946;2023-03-01T14:25:02;17.50;36.80
13440;DHT22;6792;57.698;11.946;2023-03-01T14:27:33;17.40;36.90
13440;DHT22;6792;57.698;11.946;2023-03-01T14:30:10;17.30;36.80
13440;DHT22;6792;57.698;11.946;2023-03-01T14:32:40;17.30;36.80
13440;DHT22;6792;57.698;11.946;2023-03-01T14:35:21;17.30;36.80
13440;DHT22;6792;57.698;11.946;2023-03-01T14:37:50;17.20;36.60
13440;DHT22;6792;57.698;11.946;2023-03-01T14:40:26;17.10;36.50
13440;DHT22;6792;57.698;11.946;2023-03-01T14:42:57;17.00;36.50
13440;DHT22;6792;57.698;11.946;2023-03-01T14:45:29;16.90;36.50
13440;DHT22;6792;57.698;11.946;2023-03-01T14:48:02;16.80;36.00
13440;DHT22;6792;57.698;11.946;2023-03-01T14:50:32;16.80;36.00
13440;DHT22;6792;57.698;11.946;2023-03-01T14:53:04;16.70;36.40
13440;DHT22;6792;57.698;11.946;2023-03-01T14:55:37;16.70;36.40
13440;DHT22;6792;57.698;11.946;2023-03-01T14:58:12;16.60;36.40
13440;DHT22;6792;57.698;11.946;2023-03-01T15:00:50;16.50;36.30
13440;DHT22;6792;57.698;11.946;2023-03-01T15:03:17;16.50;35.80
13440;DHT22;6792;57.698;11.946;2023-03-01T15:05:46;16.40;36.30
13440;DHT22;6792;57.698;11.946;2023-03-01T15:10:59;16.30;36.30
13440;DHT22;6792;57.698;11.946;2023-03-01T15:13:32;16.20;36.30
13440;DHT22;6792;57.698;11.946;2023-03-01T15:16:07;16.20;36.30
13440;DHT22;6792;57.698;11.946;2023-03-01T15:18:38;16.10;36.20
13440;DHT22;6792;57.698;11.946;2023-03-01T15:21:13;16.10;36.30
13440;DHT22;6792;57.698;11.946;2023-03-01T15:23:40;16.00;36.30
13440;DHT22;6792;57.698;11.946;2023-03-01T15:26:27;16.00;36.30
13440;DHT22;6792;57.698;11.946;2023-03-01T15:28:58;16.00;36.40
13440;DHT22;6792;57.698;11.946;2023-03-01T15:34:10;15.80;36.30
13440;DHT22;6792;57.698;11.946;2023-03-01T15:36:44;15.70;37.10
13440;DHT22;6792;57.698;11.946;2023-03-01T15:39:37;15.60;37.30
13440;DHT22;6792;57.698;11.946;2023-03-01T15:42:09;15.50;37.50
13440;DHT22;6792;57.698;11.946;2023-03-01T15:44:40;15.40;37.70
13440;DHT22;6792;57.698;11.946;2023-03-01T15:47:28;15.30;37.90
13440;DHT22;6792;57.698;11.946;2023-03-01T15:49:59;15.20;38.10
13440;DHT22;6792;57.698;11.946;2023-03-01T15:52:31;15.10;38.30
13440;DHT22;6792;57.698;11.946;2023-03-01T15:55:12;15.00;38.50
13440;DHT22;6792;57.698;11.946;2023-03-01T15:57:38;15.00;38.80
13440;DHT22;6792;57.698;11.946;2023-03-01T16:00:11;14.90;38.90
13440;DHT22;6792;57.698;11.946;2023-03-01T16:02:42;14.80;39.00
13440;DHT22;6792;57.698;11.946;2023-03-01T16:05:17;14.80;39.20
13440;DHT22;6792;57.698;11.946;2023-03-01T16:07:47;14.70;39.30
13440;DHT22;6792;57.698;11.946;2023-03-01T16:10:16;14.60;39.40
13440;DHT22;6792;57.698;11.946;2023-03-01T16:12:46;14.60;39.50
13440;DHT22;6792;57.698;11.946;2023-03-01T16:15:17;14.60;39.60
13440;DHT22;6792;57.698;11.946;2023-03-01T16:17:47;14.50;39.70
13440;DHT22;6792;57.698;11.946;2023-03-01T16:20:17;14.40;39.20
13440;DHT22;6792;57.698;11.946;2023-03-01T16:22:47;14.40;39.90
13440;DHT22;6792;57.698;11.946;2023-03-01T16:25:18;14.30;40.00
13440;DHT22;6792;57.698;11.946;2023-03-01T16:27:50;14.30;40.10
13440;DHT22;6792;57.698;11.946;2023-03-01T16:30:21;14.30;40.20
13440;DHT22;6792;57.698;11.946;2023-03-01T16:32:51;14.20;40.30
13440;DHT22;6792;57.698;11.946;2023-03-01T16:35:22;14.20;40.30
13440;DHT22;6792;57.698;11.946;2023-03-01T16:37:51;14.10;40.30
13440;DHT22;6792;57.698;11.946;2023-03-01T16:40:23;14.10;40.40
13440;DHT22;6792;57.698;11.946;2023-03-01T16:42:54;14.10;40.60
13440;DHT22;6792;57.698;11.946;2023-03-01T16:45:25;14.00;40.00